sensor_id;sensor_type;location;lat;lon;timestamp;P1;durP1;ratioP1;P2;durP2;ratioP2
61487;SDS011;47351;53.326;-6.298;2022-08-27T00:01:39;9.00;;;4.50;;
61487;SDS011;47351;53.326;-6.298;2022-08-27T00:04:50;9.40;;;4.00;;
61487;SDS011;47351;53.326;-6.298;2022-08-27T00:11:46;6.20;;;3.80;;
61487;SDS011;47351;53.326;-6.298;2022-08-27T00:15:15;8.60;;;4.00;;
61487;SDS011;47351;53.326;-6.298;2022-08-27T00:18:30;8.60;;;3.70;;
61487;SDS011;47351;53.326;-6.298;2022-08-27T00:21:19;7.00;;;3.40;;
61487;SDS011;47351;53.326;-6.298;2022-08-27T00:24:30;6.80;;;3.50;;
61487;SDS011;47351;53.326;-6.298;2022-08-27T00:27:40;6.30;;;2.70;;
61487;SDS011;47351;53.326;-6.298;2022-08-27T00:30:34;5.30;;;2.60;;
61487;SDS011;47351;53.326;-6.298;2022-08-27T00:33:43;5.70;;;2.70;;
61487;SDS011;47351;53.326;-6.298;2022-08-27T00:36:48;8.10;;;2.70;;
61487;SDS011;47351;53.326;-6.298;2022-08-27T00:39:59;6.90;;;2.40;;
61487;SDS011;47351;53.326;-6.298;2022-08-27T00:43:11;5.20;;;2.20;;
61487;SDS011;47351;53.326;-6.298;2022-08-27T00:46:22;5.20;;;2.10;;
61487;SDS011;47351;53.326;-6.298;2022-08-27T00:49:36;6.50;;;1.80;;
61487;SDS011;47351;53.326;-6.298;2022-08-27T00:53:04;4.50;;;2.40;;
61487;SDS011;47351;53.326;-6.298;2022-08-27T00:55:57;9.50;;;2.50;;
61487;SDS011;47351;53.326;-6.298;2022-08-27T00:59:11;5.20;;;2.40;;
61487;SDS011;47351;53.326;-6.298;2022-08-27T01:02:02;7.20;;;2.50;;
61487;SDS011;47351;53.326;-6.298;2022-08-27T01:05:24;6.40;;;2.70;;
61487;SDS011;47351;53.326;-6.298;2022-08-27T01:08:25;4.90;;;2.30;;
61487;SDS011;47351;53.326;-6.298;2022-08-27T01:11:39;6.80;;;2.50;;
61487;SDS011;47351;53.326;-6.298;2022-08-27T01:14:41;5.10;;;2.10;;
61487;SDS011;47351;53.326;-6.298;2022-08-27T01:17:45;5.90;;;2.30;;
61487;SDS011;47351;53.326;-6.298;2022-08-27T01:20:43;5.80;;;2.60;;
61487;SDS011;47351;53.326;-6.298;2022-08-27T01:23:39;5.10;;;2.50;;
61487;SDS011;47351;53.326;-6.298;2022-08-27T01:26:43;7.80;;;2.90;;
61487;SDS011;47351;53.326;-6.298;2022-08-27T01:29:38;6.80;;;2.90;;
61487;SDS011;47351;53.326;-6.298;2022-08-27T01:32:32;5.80;;;2.90;;
61487;SDS011;47351;53.326;-6.298;2022-08-27T01:35:43;6.70;;;3.40;;
61487;SDS011;47351;53.326;-6.298;2022-08-27T01:38:26;8.30;;;4.20;;
61487;SDS011;47351;53.326;-6.298;2022-08-27T01:41:38;7.90;;;4.10;;
61487;SDS011;47351;53.326;-6.298;2022-08-27T01:44:23;8.50;;;4.10;;
61487;SDS011;47351;53.326;-6.298;2022-08-27T01:47:32;9.40;;;4.30;;
61487;SDS011;47351;53.326;-6.298;2022-08-27T01:50:43;6.60;;;3.50;;
61487;SDS011;47351;53.326;-6.298;2022-08-27T01:53:38;9.40;;;3.60;;
61487;SDS011;47351;53.326;-6.298;2022-08-27T01:59:55;8.40;;;3.20;;
61487;SDS011;47351;53.326;-6.298;2022-08-27T02:03:17;7.20;;;3.00;;
61487;SDS011;47351;53.326;-6.298;2022-08-27T02:06:28;8.70;;;3.20;;
61487;SDS011;47351;53.326;-6.298;2022-08-27T02:09:38;7.40;;;3.10;;
61487;SDS011;47351;53.326;-6.298;2022-08-27T02:12:47;6.20;;;2.80;;
61487;SDS011;47351;53.326;-6.298;2022-08-27T02:15:57;5.20;;;2.90;;
61487;SDS011;47351;53.326;-6.298;2022-08-27T02:19:06;9.00;;;3.00;;
61487;SDS011;47351;53.326;-6.298;2022-08-27T02:22:22;5.50;;;2.60;;
61487;SDS011;47351;53.326;-6.298;2022-08-27T02:25:32;8.50;;;2.60;;
61487;SDS011;47351;53.326;-6.298;2022-08-27T02:28:43;7.20;;;2.40;;
61487;SDS011;47351;53.326;-6.298;2022-08-27T02:31:52;7.00;;;2.30;;
61487;SDS011;47351;53.326;-6.298;2022-08-27T02:38:17;5.30;;;2.40;;
61487;SDS011;47351;53.326;-6.298;2022-08-27T02:41:27;6.60;;;3.10;;
61487;SDS011;47351;53.326;-6.298;2022-08-27T02:44:38;6.20;;;2.80;;
61487;SDS011;47351;53.326;-6.298;2022-08-27T02:47:49;5.90;;;2.70;;
61487;SDS011;47351;53.326;-6.298;2022-08-27T02:51:00;6.60;;;2.20;;
61487;SDS011;47351;53.326;-6.298;2022-08-27T02:54:00;5.30;;;2.50;;
61487;SDS011;47351;53.326;-6.298;2022-08-27T03:00:45;7.30;;;3.20;;
61487;SDS011;47351;53.326;-6.298;2022-08-27T03:03:50;8.30;;;4.30;;
61487;SDS011;47351;53.326;-6.298;2022-08-27T03:07:15;9.70;;;6.40;;
61487;SDS011;47351;53.326;-6.298;2022-08-27T03:10:25;10.90;;;6.80;;
61487;SDS011;47351;53.326;-6.298;2022-08-27T03:13:42;14.20;;;7.90;;
61487;SDS011;47351;53.326;-6.298;2022-08-27T03:16:35;14.40;;;8.90;;
61487;SDS011;47351;53.326;-6.298;2022-08-27T03:19:46;11.50;;;7.60;;
61487;SDS011;47351;53.326;-6.298;2022-08-27T03:26:24;9.70;;;5.10;;
61487;SDS011;47351;53.326;-6.298;2022-08-27T03:29:35;8.30;;;4.50;;
61487;SDS011;47351;53.326;-6.298;2022-08-27T03:32:53;7.90;;;4.40;;
61487;SDS011;47351;53.326;-6.298;2022-08-27T03:36:02;10.50;;;4.40;;
61487;SDS011;47351;53.326;-6.298;2022-08-27T03:39:19;10.40;;;4.00;;
61487;SDS011;47351;53.326;-6.298;2022-08-27T03:45:52;8.50;;;4.10;;
61487;SDS011;47351;53.326;-6.298;2022-08-27T03:48:52;7.00;;;3.90;;
61487;SDS011;47351;53.326;-6.298;2022-08-27T03:52:05;7.60;;;4.20;;
61487;SDS011;47351;53.326;-6.298;2022-08-27T03:55:23;9.50;;;4.70;;
61487;SDS011;47351;53.326;-6.298;2022-08-27T03:58:33;6.80;;;4.30;;
61487;SDS011;47351;53.326;-6.298;2022-08-27T04:01:46;8.00;;;4.80;;
61487;SDS011;47351;53.326;-6.298;2022-08-27T04:04:55;10.10;;;4.20;;
61487;SDS011;47351;53.326;-6.298;2022-08-27T04:11:33;13.10;;;11.30;;
61487;SDS011;47351;53.326;-6.298;2022-08-27T04:14:42;16.50;;;14.80;;
61487;SDS011;47351;53.326;-6.298;2022-08-27T04:17:58;19.90;;;17.90;;
61487;SDS011;47351;53.326;-6.298;2022-08-27T04:21:11;24.30;;;20.90;;
61487;SDS011;47351;53.326;-6.298;2022-08-27T04:24:22;24.70;;;22.10;;
61487;SDS011;47351;53.326;-6.298;2022-08-27T04:27:20;25.60;;;23.10;;
61487;SDS011;47351;53.326;-6.298;2022-08-27T04:30:31;19.90;;;16.20;;
61487;SDS011;47351;53.326;-6.298;2022-08-27T04:33:42;13.10;;;9.40;;
61487;SDS011;47351;53.326;-6.298;2022-08-27T04:36:58;10.20;;;5.00;;
61487;SDS011;47351;53.326;-6.298;2022-08-27T04:40:14;8.00;;;3.60;;
61487;SDS011;47351;53.326;-6.298;2022-08-27T04:43:32;8.40;;;3.40;;
61487;SDS011;47351;53.326;-6.298;2022-08-27T04:46:47;5.90;;;3.10;;
61487;SDS011;47351;53.326;-6.298;2022-08-27T04:50:01;6.00;;;3.20;;
61487;SDS011;47351;53.326;-6.298;2022-08-27T04:52:55;6.80;;;3.10;;
61487;SDS011;47351;53.326;-6.298;2022-08-27T04:56:04;7.80;;;3.10;;
61487;SDS011;47351;53.326;-6.298;2022-08-27T04:59:21;9.50;;;3.60;;
61487;SDS011;47351;53.326;-6.298;2022-08-27T05:02:32;8.60;;;3.80;;
61487;SDS011;47351;53.326;-6.298;2022-08-27T05:05:41;9.00;;;3.80;;
61487;SDS011;47351;53.326;-6.298;2022-08-27T05:08:34;8.30;;;3.60;;
61487;SDS011;47351;53.326;-6.298;2022-08-27T05:11:26;6.50;;;3.30;;
61487;SDS011;47351;53.326;-6.298;2022-08-27T05:14:38;7.70;;;3.70;;
61487;SDS011;47351;53.326;-6.298;2022-08-27T05:17:53;7.80;;;3.60;;
61487;SDS011;47351;53.326;-6.298;2022-08-27T05:20:55;12.70;;;3.90;;
61487;SDS011;47351;53.326;-6.298;2022-08-27T05:24:05;8.10;;;3.60;;
61487;SDS011;47351;53.326;-6.298;2022-08-27T05:27:29;7.70;;;3.70;;
61487;SDS011;47351;53.326;-6.298;2022-08-27T05:30:42;7.80;;;3.60;;
61487;SDS011;47351;53.326;-6.298;2022-08-27T05:37:50;7.00;;;3.40;;
61487;SDS011;47351;53.326;-6.298;2022-08-27T05:41:02;6.70;;;3.20;;
61487;SDS011;47351;53.326;-6.298;2022-08-27T05:44:13;6.80;;;3.40;;
61487;SDS011;47351;53.326;-6.298;2022-08-27T05:47:43;11.20;;;3.90;;
61487;SDS011;47351;53.326;-6.298;2022-08-27T05:50:35;7.70;;;3.50;;
61487;SDS011;47351;53.326;-6.298;2022-08-27T05:57:15;6.30;;;3.50;;
61487;SDS011;47351;53.326;-6.298;2022-08-27T06:00:25;8.80;;;3.90;;
61487;SDS011;47351;53.326;-6.298;2022-08-27T06:03:53;10.90;;;4.10;;
61487;SDS011;47351;53.326;-6.298;2022-08-27T06:07:06;6.20;;;3.50;;
61487;SDS011;47351;53.326;-6.298;2022-08-27T06:14:20;9.20;;;3.60;;
61487;SDS011;47351;53.326;-6.298;2022-08-27T06:17:27;7.40;;;3.40;;
61487;SDS011;47351;53.326;-6.298;2022-08-27T06:20:43;10.90;;;3.50;;
61487;SDS011;47351;53.326;-6.298;2022-08-27T06:23:59;7.80;;;3.10;;
61487;SDS011;47351;53.326;-6.298;2022-08-27T06:27:11;6.90;;;3.10;;
61487;SDS011;47351;53.326;-6.298;2022-08-27T06:30:15;10.80;;;3.50;;
61487;SDS011;47351;53.326;-6.298;2022-08-27T06:33:30;9.20;;;3.70;;
61487;SDS011;47351;53.326;-6.298;2022-08-27T06:36:34;8.90;;;4.20;;
61487;SDS011;47351;53.326;-6.298;2022-08-27T06:39:26;9.60;;;4.30;;
61487;SDS011;47351;53.326;-6.298;2022-08-27T06:42:21;9.50;;;4.60;;
61487;SDS011;47351;53.326;-6.298;2022-08-27T06:45:30;8.90;;;4.80;;
61487;SDS011;47351;53.326;-6.298;2022-08-27T06:48:23;9.00;;;4.50;;
61487;SDS011;47351;53.326;-6.298;2022-08-27T06:54:22;7.20;;;3.70;;
61487;SDS011;47351;53.326;-6.298;2022-08-27T06:57:33;8.50;;;3.50;;
61487;SDS011;47351;53.326;-6.298;2022-08-27T07:00:15;8.00;;;3.80;;
61487;SDS011;47351;53.326;-6.298;2022-08-27T07:03:06;8.30;;;3.60;;
61487;SDS011;47351;53.326;-6.298;2022-08-27T07:06:20;7.90;;;4.00;;
61487;SDS011;47351;53.326;-6.298;2022-08-27T07:09:30;7.00;;;3.90;;
61487;SDS011;47351;53.326;-6.298;2022-08-27T07:12:34;10.70;;;4.70;;
61487;SDS011;47351;53.326;-6.298;2022-08-27T07:15:37;10.70;;;5.10;;
61487;SDS011;47351;53.326;-6.298;2022-08-27T07:18:41;8.60;;;4.40;;
61487;SDS011;47351;53.326;-6.298;2022-08-27T07:21:34;11.00;;;4.30;;
61487;SDS011;47351;53.326;-6.298;2022-08-27T07:24:36;9.60;;;4.50;;
61487;SDS011;47351;53.326;-6.298;2022-08-27T07:27:12;9.10;;;4.00;;
61487;SDS011;47351;53.326;-6.298;2022-08-27T07:29:42;7.70;;;3.60;;
61487;SDS011;47351;53.326;-6.298;2022-08-27T07:32:11;10.30;;;3.50;;
61487;SDS011;47351;53.326;-6.298;2022-08-27T07:34:43;7.40;;;2.90;;
61487;SDS011;47351;53.326;-6.298;2022-08-27T07:37:24;6.90;;;3.20;;
61487;SDS011;47351;53.326;-6.298;2022-08-27T07:40:05;5.80;;;2.60;;
61487;SDS011;47351;53.326;-6.298;2022-08-27T07:42:40;8.40;;;3.00;;
61487;SDS011;47351;53.326;-6.298;2022-08-27T07:45:29;7.40;;;2.60;;
61487;SDS011;47351;53.326;-6.298;2022-08-27T07:47:58;6.50;;;2.70;;
61487;SDS011;47351;53.326;-6.298;2022-08-27T07:50:27;7.70;;;2.60;;
61487;SDS011;47351;53.326;-6.298;2022-08-27T07:52:56;7.50;;;2.40;;
61487;SDS011;47351;53.326;-6.298;2022-08-27T07:55:25;7.80;;;2.20;;
61487;SDS011;47351;53.326;-6.298;2022-08-27T07:57:54;6.10;;;2.50;;
61487;SDS011;47351;53.326;-6.298;2022-08-27T08:00:26;7.80;;;2.70;;
61487;SDS011;47351;53.326;-6.298;2022-08-27T08:02:58;6.80;;;2.30;;
61487;SDS011;47351;53.326;-6.298;2022-08-27T08:05:30;5.70;;;2.20;;
61487;SDS011;47351;53.326;-6.298;2022-08-27T08:07:59;7.40;;;2.50;;
61487;SDS011;47351;53.326;-6.298;2022-08-27T08:10:29;7.90;;;2.40;;
61487;SDS011;47351;53.326;-6.298;2022-08-27T08:13:05;7.60;;;2.20;;
61487;SDS011;47351;53.326;-6.298;2022-08-27T08:15:37;7.80;;;2.20;;
61487;SDS011;47351;53.326;-6.298;2022-08-27T08:18:06;6.60;;;2.20;;
61487;SDS011;47351;53.326;-6.298;2022-08-27T08:20:36;7.40;;;2.10;;
61487;SDS011;47351;53.326;-6.298;2022-08-27T08:23:25;4.40;;;1.90;;
61487;SDS011;47351;53.326;-6.298;2022-08-27T08:25:57;3.70;;;1.60;;
61487;SDS011;47351;53.326;-6.298;2022-08-27T08:28:30;5.70;;;1.90;;
61487;SDS011;47351;53.326;-6.298;2022-08-27T08:30:59;3.80;;;1.70;;
61487;SDS011;47351;53.326;-6.298;2022-08-27T08:33:31;6.00;;;1.90;;
61487;SDS011;47351;53.326;-6.298;2022-08-27T08:36:05;5.70;;;1.60;;
61487;SDS011;47351;53.326;-6.298;2022-08-27T08:38:35;6.90;;;1.70;;
61487;SDS011;47351;53.326;-6.298;2022-08-27T08:41:05;4.70;;;1.50;;
61487;SDS011;47351;53.326;-6.298;2022-08-27T08:43:49;6.20;;;1.60;;
61487;SDS011;47351;53.326;-6.298;2022-08-27T08:46:28;6.20;;;1.50;;
61487;SDS011;47351;53.326;-6.298;2022-08-27T08:49:04;4.10;;;1.40;;
61487;SDS011;47351;53.326;-6.298;2022-08-27T08:51:45;3.60;;;1.50;;
61487;SDS011;47351;53.326;-6.298;2022-08-27T08:54:15;4.70;;;1.80;;
61487;SDS011;47351;53.326;-6.298;2022-08-27T08:56:50;5.10;;;1.40;;
61487;SDS011;47351;53.326;-6.298;2022-08-27T08:59:27;5.30;;;1.30;;
61487;SDS011;47351;53.326;-6.298;2022-08-27T09:02:04;4.10;;;1.50;;
61487;SDS011;47351;53.326;-6.298;2022-08-27T09:04:40;3.30;;;1.30;;
61487;SDS011;47351;53.326;-6.298;2022-08-27T09:07:11;4.90;;;1.30;;
61487;SDS011;47351;53.326;-6.298;2022-08-27T09:09:49;3.70;;;1.20;;
61487;SDS011;47351;53.326;-6.298;2022-08-27T09:12:24;8.30;;;3.80;;
61487;SDS011;47351;53.326;-6.298;2022-08-27T09:15:00;3.40;;;1.10;;
61487;SDS011;47351;53.326;-6.298;2022-08-27T09:17:39;5.70;;;1.80;;
61487;SDS011;47351;53.326;-6.298;2022-08-27T09:20:09;5.10;;;1.20;;
61487;SDS011;47351;53.326;-6.298;2022-08-27T09:22:47;3.00;;;1.00;;
61487;SDS011;47351;53.326;-6.298;2022-08-27T09:25:25;4.70;;;1.00;;
61487;SDS011;47351;53.326;-6.298;2022-08-27T09:27:59;3.10;;;1.00;;
61487;SDS011;47351;53.326;-6.298;2022-08-27T09:30:31;2.50;;;0.80;;
61487;SDS011;47351;53.326;-6.298;2022-08-27T09:33:09;4.00;;;1.10;;
61487;SDS011;47351;53.326;-6.298;2022-08-27T09:35:39;2.90;;;0.90;;
61487;SDS011;47351;53.326;-6.298;2022-08-27T09:38:10;2.40;;;1.00;;
61487;SDS011;47351;53.326;-6.298;2022-08-27T09:40:54;3.30;;;0.70;;
61487;SDS011;47351;53.326;-6.298;2022-08-27T09:43:31;3.70;;;1.00;;
61487;SDS011;47351;53.326;-6.298;2022-08-27T09:46:04;3.60;;;0.70;;
61487;SDS011;47351;53.326;-6.298;2022-08-27T09:48:42;2.30;;;0.60;;
61487;SDS011;47351;53.326;-6.298;2022-08-27T09:51:15;3.10;;;0.70;;
61487;SDS011;47351;53.326;-6.298;2022-08-27T09:53:49;3.00;;;0.80;;
61487;SDS011;47351;53.326;-6.298;2022-08-27T09:56:21;3.10;;;0.70;;
61487;SDS011;47351;53.326;-6.298;2022-08-27T09:58:54;2.20;;;0.70;;
61487;SDS011;47351;53.326;-6.298;2022-08-27T10:01:49;4.50;;;0.90;;
61487;SDS011;47351;53.326;-6.298;2022-08-27T10:04:24;4.40;;;1.00;;
61487;SDS011;47351;53.326;-6.298;2022-08-27T10:07:17;4.30;;;0.70;;
61487;SDS011;47351;53.326;-6.298;2022-08-27T10:10:03;4.00;;;0.70;;
61487;SDS011;47351;53.326;-6.298;2022-08-27T10:12:41;3.50;;;0.90;;
61487;SDS011;47351;53.326;-6.298;2022-08-27T10:15:20;6.90;;;1.20;;
61487;SDS011;47351;53.326;-6.298;2022-08-27T10:18:02;3.90;;;0.90;;
61487;SDS011;47351;53.326;-6.298;2022-08-27T10:20:38;7.00;;;0.90;;
61487;SDS011;47351;53.326;-6.298;2022-08-27T10:23:16;6.80;;;1.00;;
61487;SDS011;47351;53.326;-6.298;2022-08-27T10:25:54;6.50;;;1.10;;
61487;SDS011;47351;53.326;-6.298;2022-08-27T10:28:32;5.00;;;1.00;;
61487;SDS011;47351;53.326;-6.298;2022-08-27T10:31:15;2.60;;;0.80;;
61487;SDS011;47351;53.326;-6.298;2022-08-27T10:33:57;6.30;;;1.00;;
61487;SDS011;47351;53.326;-6.298;2022-08-27T10:36:40;4.10;;;1.00;;
61487;SDS011;47351;53.326;-6.298;2022-08-27T10:39:29;3.50;;;0.90;;
61487;SDS011;47351;53.326;-6.298;2022-08-27T10:42:12;3.50;;;1.00;;
61487;SDS011;47351;53.326;-6.298;2022-08-27T10:44:51;4.60;;;1.10;;
61487;SDS011;47351;53.326;-6.298;2022-08-27T10:47:35;5.00;;;1.00;;
61487;SDS011;47351;53.326;-6.298;2022-08-27T10:50:16;6.10;;;1.00;;
61487;SDS011;47351;53.326;-6.298;2022-08-27T10:53:00;8.20;;;1.30;;
61487;SDS011;47351;53.326;-6.298;2022-08-27T10:55:35;5.20;;;1.00;;
61487;SDS011;47351;53.326;-6.298;2022-08-27T10:58:19;4.40;;;1.50;;
61487;SDS011;47351;53.326;-6.298;2022-08-27T11:01:04;4.10;;;0.80;;
61487;SDS011;47351;53.326;-6.298;2022-08-27T11:03:46;4.30;;;0.90;;
61487;SDS011;47351;53.326;-6.298;2022-08-27T11:06:32;4.10;;;1.10;;
61487;SDS011;47351;53.326;-6.298;2022-08-27T11:09:08;4.60;;;0.90;;
61487;SDS011;47351;53.326;-6.298;2022-08-27T11:11:43;3.30;;;0.80;;
61487;SDS011;47351;53.326;-6.298;2022-08-27T11:14:39;3.60;;;0.80;;
61487;SDS011;47351;53.326;-6.298;2022-08-27T11:17:13;2.40;;;0.70;;
61487;SDS011;47351;53.326;-6.298;2022-08-27T11:20:00;5.00;;;0.80;;
61487;SDS011;47351;53.326;-6.298;2022-08-27T11:22:41;2.70;;;0.80;;
61487;SDS011;47351;53.326;-6.298;2022-08-27T11:25:20;4.10;;;1.10;;
61487;SDS011;47351;53.326;-6.298;2022-08-27T11:28:00;4.10;;;0.80;;
61487;SDS011;47351;53.326;-6.298;2022-08-27T11:30:34;4.00;;;0.90;;
61487;SDS011;47351;53.326;-6.298;2022-08-27T11:33:13;2.40;;;0.60;;
61487;SDS011;47351;53.326;-6.298;2022-08-27T11:35:50;4.30;;;1.00;;
61487;SDS011;47351;53.326;-6.298;2022-08-27T11:38:41;4.30;;;0.90;;
61487;SDS011;47351;53.326;-6.298;2022-08-27T11:41:36;2.40;;;0.70;;
61487;SDS011;47351;53.326;-6.298;2022-08-27T11:44:24;4.10;;;0.90;;
61487;SDS011;47351;53.326;-6.298;2022-08-27T11:49:47;2.50;;;0.70;;
61487;SDS011;47351;53.326;-6.298;2022-08-27T11:52:24;3.60;;;0.70;;
61487;SDS011;47351;53.326;-6.298;2022-08-27T11:54:56;3.30;;;0.80;;
61487;SDS011;47351;53.326;-6.298;2022-08-27T11:58:02;2.40;;;0.70;;
61487;SDS011;47351;53.326;-6.298;2022-08-27T12:00:43;4.20;;;0.70;;
61487;SDS011;47351;53.326;-6.298;2022-08-27T12:03:22;3.10;;;0.80;;
61487;SDS011;47351;53.326;-6.298;2022-08-27T12:06:08;2.60;;;0.80;;
61487;SDS011;47351;53.326;-6.298;2022-08-27T12:09:05;3.50;;;1.10;;
61487;SDS011;47351;53.326;-6.298;2022-08-27T12:12:05;2.90;;;0.90;;
61487;SDS011;47351;53.326;-6.298;2022-08-27T12:15:11;3.60;;;0.60;;
61487;SDS011;47351;53.326;-6.298;2022-08-27T12:18:14;3.50;;;0.80;;
61487;SDS011;47351;53.326;-6.298;2022-08-27T12:21:10;4.10;;;0.80;;
61487;SDS011;47351;53.326;-6.298;2022-08-27T12:23:45;2.20;;;0.70;;
61487;SDS011;47351;53.326;-6.298;2022-08-27T12:26:57;3.50;;;0.80;;
61487;SDS011;47351;53.326;-6.298;2022-08-27T12:29:59;2.80;;;0.70;;
61487;SDS011;47351;53.326;-6.298;2022-08-27T12:32:37;3.70;;;1.00;;
61487;SDS011;47351;53.326;-6.298;2022-08-27T12:35:19;2.30;;;0.90;;
61487;SDS011;47351;53.326;-6.298;2022-08-27T12:38:09;3.60;;;0.90;;
61487;SDS011;47351;53.326;-6.298;2022-08-27T12:41:02;3.70;;;0.80;;
61487;SDS011;47351;53.326;-6.298;2022-08-27T12:43:42;2.70;;;1.00;;
61487;SDS011;47351;53.326;-6.298;2022-08-27T12:46:14;7.10;;;1.40;;
61487;SDS011;47351;53.326;-6.298;2022-08-27T12:49:05;2.40;;;0.90;;
61487;SDS011;47351;53.326;-6.298;2022-08-27T12:52:04;6.00;;;2.00;;
61487;SDS011;47351;53.326;-6.298;2022-08-27T12:54:54;2.90;;;1.20;;
61487;SDS011;47351;53.326;-6.298;2022-08-27T12:57:33;4.40;;;1.70;;
61487;SDS011;47351;53.326;-6.298;2022-08-27T13:00:20;3.30;;;0.80;;
61487;SDS011;47351;53.326;-6.298;2022-08-27T13:03:17;5.70;;;1.00;;
61487;SDS011;47351;53.326;-6.298;2022-08-27T13:05:52;3.60;;;1.00;;
61487;SDS011;47351;53.326;-6.298;2022-08-27T13:08:25;3.90;;;1.50;;
61487;SDS011;47351;53.326;-6.298;2022-08-27T13:10:55;4.80;;;1.00;;
61487;SDS011;47351;53.326;-6.298;2022-08-27T13:13:36;2.70;;;0.70;;
61487;SDS011;47351;53.326;-6.298;2022-08-27T13:16:05;3.00;;;0.90;;
61487;SDS011;47351;53.326;-6.298;2022-08-27T13:18:34;4.00;;;0.90;;
61487;SDS011;47351;53.326;-6.298;2022-08-27T13:21:06;5.70;;;1.20;;
61487;SDS011;47351;53.326;-6.298;2022-08-27T13:23:43;4.00;;;0.80;;
61487;SDS011;47351;53.326;-6.298;2022-08-27T13:26:19;3.10;;;0.70;;
61487;SDS011;47351;53.326;-6.298;2022-08-27T13:28:49;3.60;;;0.60;;
61487;SDS011;47351;53.326;-6.298;2022-08-27T13:31:20;2.20;;;0.80;;
61487;SDS011;47351;53.326;-6.298;2022-08-27T13:33:50;3.80;;;0.70;;
61487;SDS011;47351;53.326;-6.298;2022-08-27T13:36:28;5.40;;;0.90;;
61487;SDS011;47351;53.326;-6.298;2022-08-27T13:38:59;2.00;;;0.70;;
61487;SDS011;47351;53.326;-6.298;2022-08-27T13:41:31;5.60;;;2.60;;
61487;SDS011;47351;53.326;-6.298;2022-08-27T13:44:05;4.10;;;1.10;;
61487;SDS011;47351;53.326;-6.298;2022-08-27T13:46:41;3.50;;;0.70;;
61487;SDS011;47351;53.326;-6.298;2022-08-27T13:49:20;4.80;;;0.90;;
61487;SDS011;47351;53.326;-6.298;2022-08-27T13:51:57;3.30;;;1.60;;
61487;SDS011;47351;53.326;-6.298;2022-08-27T13:54:28;4.20;;;1.00;;
61487;SDS011;47351;53.326;-6.298;2022-08-27T13:57:03;2.50;;;0.70;;
61487;SDS011;47351;53.326;-6.298;2022-08-27T13:59:36;7.30;;;1.80;;
61487;SDS011;47351;53.326;-6.298;2022-08-27T14:02:20;2.50;;;1.00;;
61487;SDS011;47351;53.326;-6.298;2022-08-27T14:05:04;6.20;;;2.10;;
61487;SDS011;47351;53.326;-6.298;2022-08-27T14:07:38;2.60;;;0.90;;
61487;SDS011;47351;53.326;-6.298;2022-08-27T14:10:22;2.50;;;0.70;;
61487;SDS011;47351;53.326;-6.298;2022-08-27T14:12:58;3.20;;;0.80;;
61487;SDS011;47351;53.326;-6.298;2022-08-27T14:15:30;4.70;;;1.20;;
61487;SDS011;47351;53.326;-6.298;2022-08-27T14:18:07;1.70;;;0.70;;
61487;SDS011;47351;53.326;-6.298;2022-08-27T14:21:12;3.40;;;0.90;;
61487;SDS011;47351;53.326;-6.298;2022-08-27T14:23:44;3.20;;;0.80;;
61487;SDS011;47351;53.326;-6.298;2022-08-27T14:26:13;4.30;;;1.30;;
61487;SDS011;47351;53.326;-6.298;2022-08-27T14:28:46;3.90;;;0.90;;
61487;SDS011;47351;53.326;-6.298;2022-08-27T14:31:15;2.60;;;0.70;;
61487;SDS011;47351;53.326;-6.298;2022-08-27T14:33:44;3.30;;;0.90;;
61487;SDS011;47351;53.326;-6.298;2022-08-27T14:36:13;2.00;;;0.50;;
61487;SDS011;47351;53.326;-6.298;2022-08-27T14:38:43;3.50;;;0.80;;
61487;SDS011;47351;53.326;-6.298;2022-08-27T14:41:14;2.10;;;0.70;;
61487;SDS011;47351;53.326;-6.298;2022-08-27T14:43:51;4.50;;;0.90;;
61487;SDS011;47351;53.326;-6.298;2022-08-27T14:46:22;2.60;;;0.70;;
61487;SDS011;47351;53.326;-6.298;2022-08-27T14:48:55;3.10;;;0.90;;
61487;SDS011;47351;53.326;-6.298;2022-08-27T14:51:27;3.40;;;0.70;;
61487;SDS011;47351;53.326;-6.298;2022-08-27T14:53:58;3.40;;;0.80;;
61487;SDS011;47351;53.326;-6.298;2022-08-27T14:56:26;2.30;;;0.70;;
61487;SDS011;47351;53.326;-6.298;2022-08-27T14:58:55;3.90;;;0.70;;
61487;SDS011;47351;53.326;-6.298;2022-08-27T15:01:24;4.60;;;0.90;;
61487;SDS011;47351;53.326;-6.298;2022-08-27T15:03:54;3.40;;;0.70;;
61487;SDS011;47351;53.326;-6.298;2022-08-27T15:06:24;3.90;;;0.80;;
61487;SDS011;47351;53.326;-6.298;2022-08-27T15:08:53;3.70;;;0.70;;
61487;SDS011;47351;53.326;-6.298;2022-08-27T15:11:22;2.70;;;0.80;;
61487;SDS011;47351;53.326;-6.298;2022-08-27T15:13:54;3.70;;;1.00;;
61487;SDS011;47351;53.326;-6.298;2022-08-27T15:16:28;6.20;;;0.80;;
61487;SDS011;47351;53.326;-6.298;2022-08-27T15:19:07;4.50;;;0.90;;
61487;SDS011;47351;53.326;-6.298;2022-08-27T15:21:39;2.70;;;0.80;;
61487;SDS011;47351;53.326;-6.298;2022-08-27T15:24:12;4.10;;;0.90;;
61487;SDS011;47351;53.326;-6.298;2022-08-27T15:26:44;4.30;;;1.10;;
61487;SDS011;47351;53.326;-6.298;2022-08-27T15:29:22;4.00;;;0.90;;
61487;SDS011;47351;53.326;-6.298;2022-08-27T15:31:55;3.20;;;1.10;;
61487;SDS011;47351;53.326;-6.298;2022-08-27T15:34:27;4.40;;;0.70;;
61487;SDS011;47351;53.326;-6.298;2022-08-27T15:36:59;2.30;;;0.80;;
61487;SDS011;47351;53.326;-6.298;2022-08-27T15:39:29;4.00;;;0.90;;
61487;SDS011;47351;53.326;-6.298;2022-08-27T15:44:33;3.50;;;0.90;;
61487;SDS011;47351;53.326;-6.298;2022-08-27T15:47:05;3.90;;;0.90;;
61487;SDS011;47351;53.326;-6.298;2022-08-27T15:49:33;3.10;;;0.90;;
61487;SDS011;47351;53.326;-6.298;2022-08-27T15:52:02;2.50;;;0.90;;
61487;SDS011;47351;53.326;-6.298;2022-08-27T15:54:34;5.30;;;1.00;;
61487;SDS011;47351;53.326;-6.298;2022-08-27T15:57:04;3.60;;;1.00;;
61487;SDS011;47351;53.326;-6.298;2022-08-27T16:02:03;5.90;;;1.00;;
61487;SDS011;47351;53.326;-6.298;2022-08-27T16:04:33;2.80;;;1.00;;
61487;SDS011;47351;53.326;-6.298;2022-08-27T16:07:02;3.20;;;0.80;;
61487;SDS011;47351;53.326;-6.298;2022-08-27T16:09:30;2.90;;;0.80;;
61487;SDS011;47351;53.326;-6.298;2022-08-27T16:12:02;3.40;;;0.80;;
61487;SDS011;47351;53.326;-6.298;2022-08-27T16:14:31;2.30;;;0.80;;
61487;SDS011;47351;53.326;-6.298;2022-08-27T16:17:00;4.70;;;1.20;;
61487;SDS011;47351;53.326;-6.298;2022-08-27T16:19:29;4.30;;;1.00;;
61487;SDS011;47351;53.326;-6.298;2022-08-27T16:22:17;3.00;;;0.70;;
61487;SDS011;47351;53.326;-6.298;2022-08-27T16:24:46;2.40;;;0.80;;
61487;SDS011;47351;53.326;-6.298;2022-08-27T16:27:16;4.00;;;0.90;;
61487;SDS011;47351;53.326;-6.298;2022-08-27T16:29:45;3.60;;;0.90;;
61487;SDS011;47351;53.326;-6.298;2022-08-27T16:32:17;5.10;;;1.00;;
61487;SDS011;47351;53.326;-6.298;2022-08-27T16:34:49;2.90;;;0.80;;
61487;SDS011;47351;53.326;-6.298;2022-08-27T16:37:22;4.20;;;0.90;;
61487;SDS011;47351;53.326;-6.298;2022-08-27T16:39:51;3.40;;;1.00;;
61487;SDS011;47351;53.326;-6.298;2022-08-27T16:42:20;4.30;;;1.10;;
61487;SDS011;47351;53.326;-6.298;2022-08-27T16:44:49;3.80;;;1.10;;
61487;SDS011;47351;53.326;-6.298;2022-08-27T16:47:18;2.30;;;1.00;;
61487;SDS011;47351;53.326;-6.298;2022-08-27T16:49:47;4.80;;;1.20;;
61487;SDS011;47351;53.326;-6.298;2022-08-27T16:52:34;3.60;;;1.20;;
61487;SDS011;47351;53.326;-6.298;2022-08-27T16:55:03;4.40;;;1.20;;
61487;SDS011;47351;53.326;-6.298;2022-08-27T16:57:36;3.70;;;1.10;;
61487;SDS011;47351;53.326;-6.298;2022-08-27T17:00:12;2.10;;;0.90;;
61487;SDS011;47351;53.326;-6.298;2022-08-27T17:02:42;4.40;;;1.10;;
61487;SDS011;47351;53.326;-6.298;2022-08-27T17:05:11;4.50;;;1.20;;
61487;SDS011;47351;53.326;-6.298;2022-08-27T17:08:00;2.40;;;0.80;;
61487;SDS011;47351;53.326;-6.298;2022-08-27T17:10:31;2.50;;;0.80;;
61487;SDS011;47351;53.326;-6.298;2022-08-27T17:13:04;2.00;;;0.90;;
61487;SDS011;47351;53.326;-6.298;2022-08-27T17:15:34;3.50;;;1.10;;
61487;SDS011;47351;53.326;-6.298;2022-08-27T17:18:08;3.60;;;1.10;;
61487;SDS011;47351;53.326;-6.298;2022-08-27T17:20:37;4.00;;;1.00;;
61487;SDS011;47351;53.326;-6.298;2022-08-27T17:23:09;2.70;;;0.90;;